sensor_id;sensor_type;location;lat;lon;timestamp;temperature;humidity
51996;DHT22;38010;53.264;6.592;2023-05-19T00:00:57;15.80;99.90
51996;DHT22;38010;53.264;6.592;2023-05-19T00:03:23;15.80;99.90
51996;DHT22;38010;53.264;6.592;2023-05-19T00:05:52;15.80;99.90
51996;DHT22;38010;53.264;6.592;2023-05-19T00:08:19;15.80;99.90
51996;DHT22;38010;53.264;6.592;2023-05-19T00:10:45;15.80;99.90
51996;DHT22;38010;53.264;6.592;2023-05-19T00:13:11;15.80;99.90
51996;DHT22;38010;53.264;6.592;2023-05-19T00:15:37;15.80;99.90
51996;DHT22;38010;53.264;6.592;2023-05-19T00:18:03;15.80;99.90
51996;DHT22;38010;53.264;6.592;2023-05-19T00:20:28;15.80;99.90
51996;DHT22;38010;53.264;6.592;2023-05-19T00:22:54;15.70;99.90
51996;DHT22;38010;53.264;6.592;2023-05-19T00:25:20;15.80;99.90
51996;DHT22;38010;53.264;6.592;2023-05-19T00:27:46;15.80;99.90
51996;DHT22;38010;53.264;6.592;2023-05-19T00:30:12;15.80;99.90
51996;DHT22;38010;53.264;6.592;2023-05-19T00:32:37;15.80;99.90
51996;DHT22;38010;53.264;6.592;2023-05-19T00:35:03;15.70;99.90
51996;DHT22;38010;53.264;6.592;2023-05-19T00:37:30;15.70;99.90
51996;DHT22;38010;53.264;6.592;2023-05-19T00:39:55;15.70;99.90
51996;DHT22;38010;53.264;6.592;2023-05-19T00:42:21;15.70;99.90
51996;DHT22;38010;53.264;6.592;2023-05-19T00:44:47;15.70;99.90
51996;DHT22;38010;53.264;6.592;2023-05-19T00:47:13;15.70;99.90
51996;DHT22;38010;53.264;6.592;2023-05-19T00:49:38;15.70;99.90
51996;DHT22;38010;53.264;6.592;2023-05-19T00:52:05;15.70;99.90
51996;DHT22;38010;53.264;6.592;2023-05-19T00:54:33;15.70;99.90
51996;DHT22;38010;53.264;6.592;2023-05-19T00:56:59;15.70;99.90
51996;DHT22;38010;53.264;6.592;2023-05-19T00:59:25;15.70;99.90
51996;DHT22;38010;53.264;6.592;2023-05-19T01:01:52;15.70;99.90
51996;DHT22;38010;53.264;6.592;2023-05-19T01:04:18;15.70;99.90
51996;DHT22;38010;53.264;6.592;2023-05-19T01:06:48;15.60;99.90
51996;DHT22;38010;53.264;6.592;2023-05-19T01:09:20;15.60;99.90
51996;DHT22;38010;53.264;6.592;2023-05-19T01:11:47;15.70;99.90
51996;DHT22;38010;53.264;6.592;2023-05-19T01:14:12;15.70;99.90
51996;DHT22;38010;53.264;6.592;2023-05-19T01:16:39;15.70;99.90
51996;DHT22;38010;53.264;6.592;2023-05-19T01:19:37;15.60;99.90
51996;DHT22;38010;53.264;6.592;2023-05-19T01:22:31;15.60;99.90
51996;DHT22;38010;53.264;6.592;2023-05-19T01:25:07;15.70;99.90
51996;DHT22;38010;53.264;6.592;2023-05-19T01:30:35;15.60;99.90
51996;DHT22;38010;53.264;6.592;2023-05-19T01:33:05;15.60;99.90
51996;DHT22;38010;53.264;6.592;2023-05-19T01:35:34;15.60;99.90
51996;DHT22;38010;53.264;6.592;2023-05-19T01:38:02;15.60;99.90
51996;DHT22;38010;53.264;6.592;2023-05-19T01:40:29;15.60;99.90
51996;DHT22;38010;53.264;6.592;2023-05-19T01:42:57;15.60;99.90
51996;DHT22;38010;53.264;6.592;2023-05-19T01:45:25;15.60;99.90
51996;DHT22;38010;53.264;6.592;2023-05-19T01:47:55;15.60;99.90
51996;DHT22;38010;53.264;6.592;2023-05-19T01:50:21;15.60;99.90
51996;DHT22;38010;53.264;6.592;2023-05-19T01:52:47;15.60;99.90
51996;DHT22;38010;53.264;6.592;2023-05-19T01:55:13;15.50;99.90
51996;DHT22;38010;53.264;6.592;2023-05-19T02:06:45;15.50;99.90
51996;DHT22;38010;53.264;6.592;2023-05-19T02:09:22;15.50;99.90
51996;DHT22;38010;53.264;6.592;2023-05-19T02:14:29;15.60;99.90
51996;DHT22;38010;53.264;6.592;2023-05-19T02:16:59;15.60;99.90
51996;DHT22;38010;53.264;6.592;2023-05-19T02:19:30;15.60;99.90
51996;DHT22;38010;53.264;6.592;2023-05-19T02:21:57;15.50;99.90
51996;DHT22;38010;53.264;6.592;2023-05-19T02:24:23;15.50;99.90
51996;DHT22;38010;53.264;6.592;2023-05-19T02:26:49;15.50;99.90
51996;DHT22;38010;53.264;6.592;2023-05-19T02:29:16;15.60;99.90
51996;DHT22;38010;53.264;6.592;2023-05-19T02:31:42;15.50;99.90
51996;DHT22;38010;53.264;6.592;2023-05-19T02:34:07;15.50;99.90
51996;DHT22;38010;53.264;6.592;2023-05-19T02:36:34;15.50;99.90
51996;DHT22;38010;53.264;6.592;2023-05-19T02:39:02;15.50;99.90
51996;DHT22;38010;53.264;6.592;2023-05-19T02:41:27;15.50;99.90
51996;DHT22;38010;53.264;6.592;2023-05-19T02:43:53;15.50;99.90
51996;DHT22;38010;53.264;6.592;2023-05-19T02:46:19;15.50;99.90
51996;DHT22;38010;53.264;6.592;2023-05-19T02:48:45;15.50;99.90
51996;DHT22;38010;53.264;6.592;2023-05-19T02:51:10;15.50;99.90
51996;DHT22;38010;53.264;6.592;2023-05-19T02:53:36;15.50;99.90
51996;DHT22;38010;53.264;6.592;2023-05-19T02:56:02;15.50;99.90
51996;DHT22;38010;53.264;6.592;2023-05-19T02:58:28;15.50;99.90
51996;DHT22;38010;53.264;6.592;2023-05-19T03:00:54;15.50;99.90
51996;DHT22;38010;53.264;6.592;2023-05-19T03:03:20;15.50;99.90
51996;DHT22;38010;53.264;6.592;2023-05-19T03:05:46;15.50;99.90
51996;DHT22;38010;53.264;6.592;2023-05-19T03:08:12;15.40;99.90
51996;DHT22;38010;53.264;6.592;2023-05-19T03:10:38;15.40;99.90
51996;DHT22;38010;53.264;6.592;2023-05-19T03:13:04;15.40;99.90
51996;DHT22;38010;53.264;6.592;2023-05-19T03:15:30;15.50;99.90
51996;DHT22;38010;53.264;6.592;2023-05-19T03:17:57;15.40;99.90
51996;DHT22;38010;53.264;6.592;2023-05-19T03:20:23;15.40;99.90
51996;DHT22;38010;53.264;6.592;2023-05-19T03:22:49;15.40;99.90
51996;DHT22;38010;53.264;6.592;2023-05-19T03:25:15;15.40;99.90
51996;DHT22;38010;53.264;6.592;2023-05-19T03:27:41;15.40;99.90
51996;DHT22;38010;53.264;6.592;2023-05-19T03:30:08;15.40;99.90
51996;DHT22;38010;53.264;6.592;2023-05-19T03:32:33;15.40;99.90
51996;DHT22;38010;53.264;6.592;2023-05-19T03:35:03;15.40;99.90
51996;DHT22;38010;53.264;6.592;2023-05-19T03:37:30;15.40;99.90
51996;DHT22;38010;53.264;6.592;2023-05-19T03:39:57;15.40;99.90
51996;DHT22;38010;53.264;6.592;2023-05-19T03:42:22;15.40;99.90
51996;DHT22;38010;53.264;6.592;2023-05-19T03:44:48;15.40;99.90
51996;DHT22;38010;53.264;6.592;2023-05-19T03:47:14;15.40;99.90
51996;DHT22;38010;53.264;6.592;2023-05-19T03:49:40;15.40;99.90
51996;DHT22;38010;53.264;6.592;2023-05-19T03:52:06;15.40;99.90
51996;DHT22;38010;53.264;6.592;2023-05-19T03:54:31;15.40;99.90
51996;DHT22;38010;53.264;6.592;2023-05-19T03:56:57;15.40;99.90
51996;DHT22;38010;53.264;6.592;2023-05-19T03:59:23;15.30;99.90
51996;DHT22;38010;53.264;6.592;2023-05-19T04:01:49;15.30;99.90
51996;DHT22;38010;53.264;6.592;2023-05-19T04:04:15;15.30;99.90
51996;DHT22;38010;53.264;6.592;2023-05-19T04:06:41;15.40;99.90
51996;DHT22;38010;53.264;6.592;2023-05-19T04:09:14;15.40;99.90
51996;DHT22;38010;53.264;6.592;2023-05-19T04:11:41;15.40;99.90
51996;DHT22;38010;53.264;6.592;2023-05-19T04:14:07;15.40;99.90
51996;DHT22;38010;53.264;6.592;2023-05-19T04:16:33;15.40;99.90
51996;DHT22;38010;53.264;6.592;2023-05-19T04:18:59;15.40;99.90
51996;DHT22;38010;53.264;6.592;2023-05-19T04:21:25;15.40;99.90
51996;DHT22;38010;53.264;6.592;2023-05-19T04:23:51;15.40;99.90
51996;DHT22;38010;53.264;6.592;2023-05-19T04:26:17;15.30;99.90
51996;DHT22;38010;53.264;6.592;2023-05-19T04:28:46;15.40;99.90
51996;DHT22;38010;53.264;6.592;2023-05-19T04:31:15;15.30;99.90
51996;DHT22;38010;53.264;6.592;2023-05-19T04:33:40;15.40;99.90
51996;DHT22;38010;53.264;6.592;2023-05-19T04:36:07;15.40;99.90
51996;DHT22;38010;53.264;6.592;2023-05-19T04:38:35;15.40;99.90
51996;DHT22;38010;53.264;6.592;2023-05-19T04:41:02;15.30;99.90
51996;DHT22;38010;53.264;6.592;2023-05-19T04:43:28;15.30;99.90
51996;DHT22;38010;53.264;6.592;2023-05-19T04:45:54;15.40;99.90
51996;DHT22;38010;53.264;6.592;2023-05-19T04:48:20;15.30;99.90
51996;DHT22;38010;53.264;6.592;2023-05-19T04:50:49;15.30;99.90
51996;DHT22;38010;53.264;6.592;2023-05-19T04:53:16;15.30;99.90
51996;DHT22;38010;53.264;6.592;2023-05-19T04:55:43;15.30;99.90
51996;DHT22;38010;53.264;6.592;2023-05-19T04:58:08;15.40;99.90
51996;DHT22;38010;53.264;6.592;2023-05-19T05:00:35;15.30;99.90
51996;DHT22;38010;53.264;6.592;2023-05-19T05:03:01;15.30;99.90
51996;DHT22;38010;53.264;6.592;2023-05-19T05:05:30;15.30;99.90
51996;DHT22;38010;53.264;6.592;2023-05-19T05:07:55;15.30;99.90
51996;DHT22;38010;53.264;6.592;2023-05-19T05:10:22;15.40;99.90
51996;DHT22;38010;53.264;6.592;2023-05-19T05:12:48;15.30;99.90
51996;DHT22;38010;53.264;6.592;2023-05-19T05:15:14;15.40;99.90
51996;DHT22;38010;53.264;6.592;2023-05-19T05:17:40;15.30;99.90
51996;DHT22;38010;53.264;6.592;2023-05-19T05:20:06;15.30;99.90
51996;DHT22;38010;53.264;6.592;2023-05-19T05:22:33;15.40;99.90
51996;DHT22;38010;53.264;6.592;2023-05-19T05:25:00;15.30;99.90
51996;DHT22;38010;53.264;6.592;2023-05-19T05:27:26;15.40;99.90
51996;DHT22;38010;53.264;6.592;2023-05-19T05:29:53;15.30;99.90
51996;DHT22;38010;53.264;6.592;2023-05-19T05:32:18;15.30;99.90
51996;DHT22;38010;53.264;6.592;2023-05-19T05:34:44;15.30;99.90
51996;DHT22;38010;53.264;6.592;2023-05-19T05:37:10;15.30;99.90
51996;DHT22;38010;53.264;6.592;2023-05-19T05:39:36;15.40;99.90
51996;DHT22;38010;53.264;6.592;2023-05-19T05:42:01;15.30;99.90
51996;DHT22;38010;53.264;6.592;2023-05-19T05:44:27;15.40;99.90
51996;DHT22;38010;53.264;6.592;2023-05-19T05:46:53;15.40;99.90
51996;DHT22;38010;53.264;6.592;2023-05-19T05:49:19;15.30;99.90
51996;DHT22;38010;53.264;6.592;2023-05-19T05:51:45;15.30;99.90
51996;DHT22;38010;53.264;6.592;2023-05-19T05:54:11;15.40;99.90
51996;DHT22;38010;53.264;6.592;2023-05-19T05:56:38;15.30;99.90
51996;DHT22;38010;53.264;6.592;2023-05-19T05:59:05;15.40;99.90
51996;DHT22;38010;53.264;6.592;2023-05-19T06:01:31;15.30;99.90
51996;DHT22;38010;53.264;6.592;2023-05-19T06:03:57;15.30;99.90
51996;DHT22;38010;53.264;6.592;2023-05-19T06:06:23;15.40;99.90
51996;DHT22;38010;53.264;6.592;2023-05-19T06:08:48;15.40;99.90
51996;DHT22;38010;53.264;6.592;2023-05-19T06:11:14;15.40;99.90
51996;DHT22;38010;53.264;6.592;2023-05-19T06:13:40;15.40;99.90
51996;DHT22;38010;53.264;6.592;2023-05-19T06:16:06;15.30;99.90
51996;DHT22;38010;53.264;6.592;2023-05-19T06:18:32;15.30;99.90
51996;DHT22;38010;53.264;6.592;2023-05-19T06:20:57;15.30;99.90
51996;DHT22;38010;53.264;6.592;2023-05-19T06:23:23;15.40;99.90
51996;DHT22;38010;53.264;6.592;2023-05-19T06:25:51;15.30;99.90
51996;DHT22;38010;53.264;6.592;2023-05-19T06:28:16;15.40;99.90
51996;DHT22;38010;53.264;6.592;2023-05-19T06:30:42;15.30;99.90
51996;DHT22;38010;53.264;6.592;2023-05-19T06:33:08;15.40;99.90
51996;DHT22;38010;53.264;6.592;2023-05-19T06:35:34;15.40;99.90
51996;DHT22;38010;53.264;6.592;2023-05-19T06:38:00;15.30;99.90
51996;DHT22;38010;53.264;6.592;2023-05-19T06:40:25;15.40;99.90
51996;DHT22;38010;53.264;6.592;2023-05-19T06:42:51;15.40;99.90
51996;DHT22;38010;53.264;6.592;2023-05-19T06:45:17;15.40;99.90
51996;DHT22;38010;53.264;6.592;2023-05-19T06:47:48;15.40;99.90
51996;DHT22;38010;53.264;6.592;2023-05-19T06:50:14;15.40;99.90
51996;DHT22;38010;53.264;6.592;2023-05-19T06:52:40;15.40;99.90
51996;DHT22;38010;53.264;6.592;2023-05-19T06:55:06;15.40;99.90
51996;DHT22;38010;53.264;6.592;2023-05-19T06:57:32;15.40;99.90
51996;DHT22;38010;53.264;6.592;2023-05-19T06:59:58;15.40;99.90
51996;DHT22;38010;53.264;6.592;2023-05-19T07:02:23;15.40;99.90
51996;DHT22;38010;53.264;6.592;2023-05-19T07:04:49;15.40;99.90
51996;DHT22;38010;53.264;6.592;2023-05-19T07:07:17;15.40;99.90
51996;DHT22;38010;53.264;6.592;2023-05-19T07:09:43;15.40;99.90
51996;DHT22;38010;53.264;6.592;2023-05-19T07:12:08;15.40;99.90
51996;DHT22;38010;53.264;6.592;2023-05-19T07:14:34;15.40;99.90
51996;DHT22;38010;53.264;6.592;2023-05-19T07:17:01;15.40;99.90
51996;DHT22;38010;53.264;6.592;2023-05-19T07:19:26;15.40;99.90
51996;DHT22;38010;53.264;6.592;2023-05-19T07:21:52;15.40;99.90
51996;DHT22;38010;53.264;6.592;2023-05-19T07:24:19;15.40;99.90
51996;DHT22;38010;53.264;6.592;2023-05-19T07:26:45;15.40;99.90
51996;DHT22;38010;53.264;6.592;2023-05-19T07:29:11;15.40;99.90
51996;DHT22;38010;53.264;6.592;2023-05-19T07:31:37;15.40;99.90
51996;DHT22;38010;53.264;6.592;2023-05-19T07:34:03;15.40;99.90
51996;DHT22;38010;53.264;6.592;2023-05-19T07:36:29;15.40;99.90
51996;DHT22;38010;53.264;6.592;2023-05-19T07:38:55;15.40;99.90
51996;DHT22;38010;53.264;6.592;2023-05-19T07:41:21;15.40;99.90
51996;DHT22;38010;53.264;6.592;2023-05-19T07:43:48;15.40;99.90
51996;DHT22;38010;53.264;6.592;2023-05-19T07:46:14;15.40;99.90
51996;DHT22;38010;53.264;6.592;2023-05-19T07:48:40;15.40;99.90
51996;DHT22;38010;53.264;6.592;2023-05-19T07:51:05;15.40;99.90
51996;DHT22;38010;53.264;6.592;2023-05-19T07:53:35;15.40;99.90
51996;DHT22;38010;53.264;6.592;2023-05-19T07:56:01;15.40;99.90
51996;DHT22;38010;53.264;6.592;2023-05-19T07:58:27;15.40;99.90
51996;DHT22;38010;53.264;6.592;2023-05-19T08:00:56;15.40;99.90
51996;DHT22;38010;53.264;6.592;2023-05-19T08:03:22;15.40;99.90
51996;DHT22;38010;53.264;6.592;2023-05-19T08:05:48;15.40;99.90
51996;DHT22;38010;53.264;6.592;2023-05-19T08:08:14;15.40;99.90
51996;DHT22;38010;53.264;6.592;2023-05-19T08:10:41;15.40;99.90
51996;DHT22;38010;53.264;6.592;2023-05-19T08:13:07;15.40;99.90
51996;DHT22;38010;53.264;6.592;2023-05-19T08:15:33;15.40;99.90
51996;DHT22;38010;53.264;6.592;2023-05-19T08:17:58;15.40;99.90
51996;DHT22;38010;53.264;6.592;2023-05-19T08:20:24;15.40;99.90
51996;DHT22;38010;53.264;6.592;2023-05-19T08:22:50;15.40;99.90
51996;DHT22;38010;53.264;6.592;2023-05-19T08:25:16;15.50;99.90
51996;DHT22;38010;53.264;6.592;2023-05-19T08:27:41;15.50;99.90
51996;DHT22;38010;53.264;6.592;2023-05-19T08:30:07;15.50;99.90
51996;DHT22;38010;53.264;6.592;2023-05-19T08:32:33;15.50;99.90
51996;DHT22;38010;53.264;6.592;2023-05-19T08:34:59;15.50;99.90
51996;DHT22;38010;53.264;6.592;2023-05-19T08:37:24;15.50;99.90
51996;DHT22;38010;53.264;6.592;2023-05-19T08:39:50;15.50;99.90
51996;DHT22;38010;53.264;6.592;2023-05-19T08:42:16;15.50;99.90
51996;DHT22;38010;53.264;6.592;2023-05-19T08:44:42;15.50;99.90
51996;DHT22;38010;53.264;6.592;2023-05-19T08:47:08;15.50;99.90
51996;DHT22;38010;53.264;6.592;2023-05-19T08:49:45;15.50;99.90
51996;DHT22;38010;53.264;6.592;2023-05-19T08:54:48;15.50;99.90
51996;DHT22;38010;53.264;6.592;2023-05-19T08:57:15;15.50;99.90
51996;DHT22;38010;53.264;6.592;2023-05-19T08:59:42;15.50;99.90
51996;DHT22;38010;53.264;6.592;2023-05-19T09:02:10;15.50;99.90
51996;DHT22;38010;53.264;6.592;2023-05-19T09:04:39;15.50;99.90
51996;DHT22;38010;53.264;6.592;2023-05-19T09:07:05;15.50;99.90
51996;DHT22;38010;53.264;6.592;2023-05-19T09:09:33;15.50;99.90
51996;DHT22;38010;53.264;6.592;2023-05-19T09:11:59;15.50;99.90
51996;DHT22;38010;53.264;6.592;2023-05-19T09:14:25;15.50;99.90
51996;DHT22;38010;53.264;6.592;2023-05-19T09:16:51;15.50;99.90
51996;DHT22;38010;53.264;6.592;2023-05-19T09:19:17;15.60;99.90
51996;DHT22;38010;53.264;6.592;2023-05-19T09:21:45;15.60;99.90
51996;DHT22;38010;53.264;6.592;2023-05-19T09:24:10;15.50;99.90
51996;DHT22;38010;53.264;6.592;2023-05-19T09:26:41;15.60;99.90
51996;DHT22;38010;53.264;6.592;2023-05-19T09:29:15;15.50;99.90
51996;DHT22;38010;53.264;6.592;2023-05-19T09:32:07;15.50;99.90
51996;DHT22;38010;53.264;6.592;2023-05-19T09:34:32;15.60;99.90
51996;DHT22;38010;53.264;6.592;2023-05-19T09:36:58;15.50;99.90
51996;DHT22;38010;53.264;6.592;2023-05-19T09:39:24;15.60;99.90
51996;DHT22;38010;53.264;6.592;2023-05-19T09:41:54;15.60;99.90
51996;DHT22;38010;53.264;6.592;2023-05-19T09:46:50;15.50;99.90
51996;DHT22;38010;53.264;6.592;2023-05-19T09:49:20;15.50;99.90
51996;DHT22;38010;53.264;6.592;2023-05-19T09:51:48;15.60;99.90
51996;DHT22;38010;53.264;6.592;2023-05-19T09:54:14;15.50;99.90
51996;DHT22;38010;53.264;6.592;2023-05-19T09:56:43;15.50;99.90
51996;DHT22;38010;53.264;6.592;2023-05-19T09:59:09;15.60;99.90
51996;DHT22;38010;53.264;6.592;2023-05-19T10:01:36;15.50;99.90
51996;DHT22;38010;53.264;6.592;2023-05-19T10:04:05;15.60;99.90
51996;DHT22;38010;53.264;6.592;2023-05-19T10:06:31;15.60;99.90
51996;DHT22;38010;53.264;6.592;2023-05-19T10:08:58;15.60;99.90
51996;DHT22;38010;53.264;6.592;2023-05-19T10:11:24;15.60;99.90
51996;DHT22;38010;53.264;6.592;2023-05-19T10:13:51;15.60;99.90
51996;DHT22;38010;53.264;6.592;2023-05-19T10:16:19;15.60;99.90
51996;DHT22;38010;53.264;6.592;2023-05-19T10:18:46;15.60;99.90
51996;DHT22;38010;53.264;6.592;2023-05-19T10:21:14;15.60;99.90
51996;DHT22;38010;53.264;6.592;2023-05-19T10:23:41;15.60;99.90
51996;DHT22;38010;53.264;6.592;2023-05-19T10:26:07;15.60;99.90
51996;DHT22;38010;53.264;6.592;2023-05-19T10:28:36;15.60;99.90
51996;DHT22;38010;53.264;6.592;2023-05-19T10:31:06;15.60;99.90
51996;DHT22;38010;53.264;6.592;2023-05-19T10:34:06;15.60;99.90
51996;DHT22;38010;53.264;6.592;2023-05-19T10:36:50;15.60;99.90
51996;DHT22;38010;53.264;6.592;2023-05-19T10:39:24;15.60;99.90
51996;DHT22;38010;53.264;6.592;2023-05-19T10:42:12;15.60;99.90
51996;DHT22;38010;53.264;6.592;2023-05-19T10:47:28;15.60;99.90
51996;DHT22;38010;53.264;6.592;2023-05-19T10:49:54;15.70;99.90
51996;DHT22;38010;53.264;6.592;2023-05-19T10:52:22;15.70;99.90
51996;DHT22;38010;53.264;6.592;2023-05-19T10:54:50;15.60;99.90
51996;DHT22;38010;53.264;6.592;2023-05-19T10:57:24;15.60;99.90
51996;DHT22;38010;53.264;6.592;2023-05-19T10:59:50;15.60;99.90
51996;DHT22;38010;53.264;6.592;2023-05-19T11:02:48;15.70;99.90
51996;DHT22;38010;53.264;6.592;2023-05-19T11:05:27;15.70;99.90
51996;DHT22;38010;53.264;6.592;2023-05-19T11:07:55;15.70;99.90
51996;DHT22;38010;53.264;6.592;2023-05-19T11:10:24;15.70;99.90
51996;DHT22;38010;53.264;6.592;2023-05-19T11:12:51;15.70;99.90
51996;DHT22;38010;53.264;6.592;2023-05-19T11:15:16;15.70;99.90
51996;DHT22;38010;53.264;6.592;2023-05-19T11:17:47;15.70;99.90
51996;DHT22;38010;53.264;6.592;2023-05-19T11:20:27;15.70;99.90
51996;DHT22;38010;53.264;6.592;2023-05-19T11:23:06;15.70;99.90
51996;DHT22;38010;53.264;6.592;2023-05-19T11:25:49;15.80;99.90
51996;DHT22;38010;53.264;6.592;2023-05-19T11:28:17;15.80;99.90
51996;DHT22;38010;53.264;6.592;2023-05-19T11:30:51;15.80;99.90
51996;DHT22;38010;53.264;6.592;2023-05-19T11:33:19;15.80;99.90
51996;DHT22;38010;53.264;6.592;2023-05-19T11:35:46;15.80;99.90
51996;DHT22;38010;53.264;6.592;2023-05-19T11:38:13;15.80;99.90
51996;DHT22;38010;53.264;6.592;2023-05-19T11:40:41;15.80;99.90
51996;DHT22;38010;53.264;6.592;2023-05-19T11:43:07;15.80;99.90
51996;DHT22;38010;53.264;6.592;2023-05-19T11:45:33;15.80;99.90
51996;DHT22;38010;53.264;6.592;2023-05-19T11:48:00;15.80;99.90
51996;DHT22;38010;53.264;6.592;2023-05-19T11:50:27;15.80;99.90
51996;DHT22;38010;53.264;6.592;2023-05-19T11:52:53;15.80;99.90
51996;DHT22;38010;53.264;6.592;2023-05-19T11:55:20;15.80;99.90
51996;DHT22;38010;53.264;6.592;2023-05-19T11:57:59;15.80;99.90
51996;DHT22;38010;53.264;6.592;2023-05-19T12:00:29;15.80;99.90
51996;DHT22;38010;53.264;6.592;2023-05-19T12:02:56;15.80;99.90
51996;DHT22;38010;53.264;6.592;2023-05-19T12:05:24;15.80;99.90
51996;DHT22;38010;53.264;6.592;2023-05-19T12:07:51;15.90;99.90
51996;DHT22;38010;53.264;6.592;2023-05-19T12:10:28;15.90;99.90
51996;DHT22;38010;53.264;6.592;2023-05-19T12:12:55;15.90;99.90
51996;DHT22;38010;53.264;6.592;2023-05-19T12:15:23;15.90;99.90
51996;DHT22;38010;53.264;6.592;2023-05-19T12:17:49;15.90;99.90
51996;DHT22;38010;53.264;6.592;2023-05-19T12:20:18;16.00;99.90
51996;DHT22;38010;53.264;6.592;2023-05-19T12:22:45;16.00;99.90
51996;DHT22;38010;53.264;6.592;2023-05-19T12:25:12;16.00;99.90
51996;DHT22;38010;53.264;6.592;2023-05-19T12:27:38;16.00;99.90
51996;DHT22;38010;53.264;6.592;2023-05-19T12:30:04;16.10;99.90
51996;DHT22;38010;53.264;6.592;2023-05-19T12:32:32;16.10;99.90
51996;DHT22;38010;53.264;6.592;2023-05-19T12:35:01;16.10;99.90
51996;DHT22;38010;53.264;6.592;2023-05-19T12:37:28;16.10;99.90
51996;DHT22;38010;53.264;6.592;2023-05-19T12:39:55;16.10;99.90
51996;DHT22;38010;53.264;6.592;2023-05-19T12:42:22;16.10;99.90
51996;DHT22;38010;53.264;6.592;2023-05-19T12:44:49;16.20;99.90
51996;DHT22;38010;53.264;6.592;2023-05-19T12:47:18;16.20;99.90
51996;DHT22;38010;53.264;6.592;2023-05-19T12:52:26;16.20;99.90
51996;DHT22;38010;53.264;6.592;2023-05-19T12:55:00;16.20;99.90
51996;DHT22;38010;53.264;6.592;2023-05-19T12:57:27;16.30;99.90
51996;DHT22;38010;53.264;6.592;2023-05-19T13:00:04;16.30;99.90
51996;DHT22;38010;53.264;6.592;2023-05-19T13:02:58;16.30;99.90
51996;DHT22;38010;53.264;6.592;2023-05-19T13:05:28;16.40;99.90
51996;DHT22;38010;53.264;6.592;2023-05-19T13:08:05;16.40;99.90
51996;DHT22;38010;53.264;6.592;2023-05-19T13:10:33;16.40;99.90
51996;DHT22;38010;53.264;6.592;2023-05-19T13:12:59;16.50;99.90
51996;DHT22;38010;53.264;6.592;2023-05-19T13:15:26;16.50;99.90
51996;DHT22;38010;53.264;6.592;2023-05-19T13:17:53;16.60;99.90
51996;DHT22;38010;53.264;6.592;2023-05-19T13:20:20;16.60;99.90
51996;DHT22;38010;53.264;6.592;2023-05-19T13:22:46;16.60;99.90
51996;DHT22;38010;53.264;6.592;2023-05-19T13:25:13;16.70;99.90
51996;DHT22;38010;53.264;6.592;2023-05-19T13:27:38;16.70;99.90
51996;DHT22;38010;53.264;6.592;2023-05-19T13:30:05;16.70;99.90
51996;DHT22;38010;53.264;6.592;2023-05-19T13:32:32;16.80;99.90
51996;DHT22;38010;53.264;6.592;2023-05-19T13:34:58;16.90;99.90
51996;DHT22;38010;53.264;6.592;2023-05-19T13:37:24;16.90;99.90
51996;DHT22;38010;53.264;6.592;2023-05-19T13:39:50;16.90;99.90
51996;DHT22;38010;53.264;6.592;2023-05-19T13:42:16;16.90;99.90
51996;DHT22;38010;53.264;6.592;2023-05-19T13:44:45;17.00;99.90
51996;DHT22;38010;53.264;6.592;2023-05-19T13:47:11;17.00;99.90
51996;DHT22;38010;53.264;6.592;2023-05-19T13:49:36;17.10;99.90
51996;DHT22;38010;53.264;6.592;2023-05-19T13:52:03;17.10;99.90
51996;DHT22;38010;53.264;6.592;2023-05-19T13:54:28;17.20;99.90
51996;DHT22;38010;53.264;6.592;2023-05-19T13:56:54;17.50;99.90
51996;DHT22;38010;53.264;6.592;2023-05-19T13:59:20;17.90;99.90
51996;DHT22;38010;53.264;6.592;2023-05-19T14:01:46;19.00;99.90
51996;DHT22;38010;53.264;6.592;2023-05-19T14:04:12;20.70;99.90
51996;DHT22;38010;53.264;6.592;2023-05-19T14:09:05;21.40;99.90
51996;DHT22;38010;53.264;6.592;2023-05-19T14:11:33;22.20;99.90
51996;DHT22;38010;53.264;6.592;2023-05-19T14:13:59;22.90;99.50
51996;DHT22;38010;53.264;6.592;2023-05-19T14:16:25;23.40;98.30
51996;DHT22;38010;53.264;6.592;2023-05-19T14:18:52;23.70;97.50
51996;DHT22;38010;53.264;6.592;2023-05-19T14:21:19;24.20;96.70
51996;DHT22;38010;53.264;6.592;2023-05-19T14:23:45;24.30;96.20
51996;DHT22;38010;53.264;6.592;2023-05-19T14:26:11;24.00;95.80
51996;DHT22;38010;53.264;6.592;2023-05-19T14:28:37;23.20;96.10
51996;DHT22;38010;53.264;6.592;2023-05-19T14:31:02;22.50;96.60
51996;DHT22;38010;53.264;6.592;2023-05-19T14:33:28;21.70;97.30
51996;DHT22;38010;53.264;6.592;2023-05-19T14:35:54;21.50;97.90
51996;DHT22;38010;53.264;6.592;2023-05-19T14:38:20;21.00;98.50
51996;DHT22;38010;53.264;6.592;2023-05-19T14:40:46;20.60;99.10
51996;DHT22;38010;53.264;6.592;2023-05-19T14:43:13;20.30;99.70
51996;DHT22;38010;53.264;6.592;2023-05-19T14:45:38;20.00;99.90
51996;DHT22;38010;53.264;6.592;2023-05-19T14:48:06;19.80;99.90
51996;DHT22;38010;53.264;6.592;2023-05-19T14:50:32;19.50;99.90
51996;DHT22;38010;53.264;6.592;2023-05-19T14:52:58;19.40;99.90
51996;DHT22;38010;53.264;6.592;2023-05-19T14:55:24;19.20;99.90
51996;DHT22;38010;53.264;6.592;2023-05-19T14:57:49;19.10;99.90
51996;DHT22;38010;53.264;6.592;2023-05-19T15:00:15;19.00;99.90
51996;DHT22;38010;53.264;6.592;2023-05-19T15:02:42;18.80;99.90
51996;DHT22;38010;53.264;6.592;2023-05-19T15:05:08;18.80;99.90
51996;DHT22;38010;53.264;6.592;2023-05-19T15:07:34;18.70;99.90
51996;DHT22;38010;53.264;6.592;2023-05-19T15:10:00;18.70;99.90
51996;DHT22;38010;53.264;6.592;2023-05-19T15:12:26;18.60;99.90
51996;DHT22;38010;53.264;6.592;2023-05-19T15:14:52;18.60;99.90
51996;DHT22;38010;53.264;6.592;2023-05-19T15:17:17;18.60;99.90
51996;DHT22;38010;53.264;6.592;2023-05-19T15:19:43;18.50;99.90
51996;DHT22;38010;53.264;6.592;2023-05-19T15:22:09;18.50;99.90
51996;DHT22;38010;53.264;6.592;2023-05-19T15:24:35;18.40;99.90
51996;DHT22;38010;53.264;6.592;2023-05-19T15:27:01;18.40;99.90
51996;DHT22;38010;53.264;6.592;2023-05-19T15:29:27;18.40;99.90
51996;DHT22;38010;53.264;6.592;2023-05-19T15:31:53;18.40;99.90
51996;DHT22;38010;53.264;6.592;2023-05-19T15:34:19;18.30;99.90
51996;DHT22;38010;53.264;6.592;2023-05-19T15:36:45;18.30;99.90
51996;DHT22;38010;53.264;6.592;2023-05-19T15:39:12;18.30;99.90
51996;DHT22;38010;53.264;6.592;2023-05-19T15:41:37;18.30;99.90
51996;DHT22;38010;53.264;6.592;2023-05-19T15:44:03;18.20;99.90
51996;DHT22;38010;53.264;6.592;2023-05-19T15:46:31;18.20;99.90
51996;DHT22;38010;53.264;6.592;2023-05-19T15:48:57;18.20;99.90
51996;DHT22;38010;53.264;6.592;2023-05-19T15:51:23;18.10;99.90
51996;DHT22;38010;53.264;6.592;2023-05-19T15:53:49;18.10;99.90
51996;DHT22;38010;53.264;6.592;2023-05-19T15:56:14;18.00;99.90
51996;DHT22;38010;53.264;6.592;2023-05-19T15:58:40;18.00;99.90